Time;durP1;ratioP1;P1;durP2;ratioP2;P2;SDS_P1;SDS_P2;PMS_P1;PMS_P2;Temp;Humidity;BMP_temperature;BMP_pressure;BME280_temperature;BME280_humidity;BME280_pressure;Samples;Min_cycle;Max_cycle;Signal;HPM_P1;HPM_P2
2021/08/13 00:02:26;;;;;;;6.70;6.00;;;24.50;99.90;;;;;;5123264;27;20469;-80
2021/08/13 00:04:54;;;;;;;5.37;4.87;;;24.50;99.90;;;;;;5110635;28;20471;-80
2021/08/13 00:07:24;;;;;;;7.10;5.77;;;24.40;99.90;;;;;;5111379;28;20498;-80
2021/08/13 00:09:52;;;;;;;6.40;5.90;;;24.50;99.90;;;;;;5111452;28;20847;-80
2021/08/13 00:12:20;;;;;;;7.90;7.10;;;24.50;99.90;;;;;;5109045;28;20464;-80
2021/08/13 00:14:48;;;;;;;7.10;5.53;;;24.50;99.90;;;;;;5111557;28;20457;-80
2021/08/13 00:17:16;;;;;;;7.00;6.30;;;24.50;99.90;;;;;;5111784;28;20449;-79
2021/08/13 00:19:45;;;;;;;6.70;5.70;;;24.40;99.90;;;;;;5120718;27;20957;-80
2021/08/13 00:22:13;;;;;;;7.47;6.67;;;24.40;99.90;;;;;;5132312;27;20476;-80
2021/08/13 00:24:42;;;;;;;6.10;5.50;;;24.40;99.90;;;;;;5132110;27;20436;-80
2021/08/13 00:27:10;;;;;;;8.07;5.60;;;24.50;99.90;;;;;;5132055;27;20440;-80
2021/08/13 00:29:39;;;;;;;8.70;6.20;;;24.50;99.90;;;;;;5131741;28;20500;-80
2021/08/13 00:32:07;;;;;;;6.00;5.20;;;24.40;99.90;;;;;;5131993;27;20448;-80
2021/08/13 00:34:35;;;;;;;6.93;6.20;;;24.50;99.90;;;;;;5130519;28;20950;-80
2021/08/13 00:37:04;;;;;;;6.83;5.10;;;24.40;99.90;;;;;;5130607;27;20877;-81
2021/08/13 00:39:32;;;;;;;6.77;5.70;;;24.40;99.90;;;;;;5129626;28;20451;-80
2021/08/13 00:42:01;;;;;;;7.93;6.57;;;24.40;99.90;;;;;;5132219;28;20475;-80
2021/08/13 00:44:30;;;;;;;6.47;5.57;;;24.40;99.90;;;;;;5131228;28;20444;-80
2021/08/13 00:46:58;;;;;;;6.37;5.70;;;24.40;99.90;;;;;;5131778;28;20432;-80
2021/08/13 00:49:26;;;;;;;7.40;5.73;;;24.40;99.90;;;;;;5132009;28;20509;-81
2021/08/13 00:51:55;;;;;;;6.60;5.90;;;24.30;99.90;;;;;;5131325;28;20521;-80
2021/08/13 00:54:23;;;;;;;6.83;5.90;;;24.30;99.90;;;;;;5131527;28;20492;-80
2021/08/13 00:56:51;;;;;;;5.97;5.37;;;24.30;99.90;;;;;;5130476;28;20848;-80
2021/08/13 00:59:21;;;;;;;8.83;7.10;;;24.20;99.90;;;;;;5131912;28;20451;-80
2021/08/13 01:01:49;;;;;;;8.53;5.80;;;24.20;99.90;;;;;;5130428;28;20463;-80
2021/08/13 01:04:18;;;;;;;7.00;5.77;;;24.10;99.90;;;;;;5132114;28;20436;-80
2021/08/13 01:06:46;;;;;;;7.10;5.63;;;24.10;99.90;;;;;;5130376;28;20447;-80
2021/08/13 01:09:15;;;;;;;7.53;6.00;;;24.10;99.90;;;;;;5131226;28;20572;-80
2021/08/13 01:11:50;;;;;;;7.80;6.20;;;24.10;99.90;;;;;;5108330;27;20468;-80
2021/08/13 01:14:26;;;;;;;6.93;5.67;;;23.90;99.90;;;;;;5111693;28;20440;-80
2021/08/13 01:16:56;;;;;;;6.60;6.00;;;23.80;99.90;;;;;;5110957;28;20535;-80
2021/08/13 01:19:36;;;;;;;7.27;6.53;;;23.70;99.90;;;;;;5126690;27;20515;-80
2021/08/13 01:22:10;;;;;;;6.43;5.70;;;23.80;99.90;;;;;;5114106;28;20464;-80
2021/08/13 01:24:42;;;;;;;6.80;6.10;;;23.70;99.90;;;;;;5115270;28;20804;-80
2021/08/13 01:27:15;;;;;;;6.70;5.43;;;23.80;99.90;;;;;;5118515;27;20444;-80
2021/08/13 01:29:50;;;;;;;7.00;5.33;;;23.80;99.90;;;;;;5133946;27;20815;-80
2021/08/13 01:32:41;;;;;;;6.40;5.60;;;23.90;99.90;;;;;;5134791;27;20451;-79
2021/08/13 01:35:12;;;;;;;6.20;5.70;;;23.90;99.90;;;;;;5135332;27;20920;-80
2021/08/13 01:37:46;;;;;;;6.67;5.97;;;23.90;99.90;;;;;;5135470;27;20797;-79
2021/08/13 01:40:16;;;;;;;5.20;4.70;;;23.80;99.90;;;;;;5134255;27;20456;-80
2021/08/13 01:42:46;;;;;;;7.33;5.40;;;23.90;99.90;;;;;;5134585;27;20467;-80
2021/08/13 01:45:18;;;;;;;6.40;4.90;;;24.00;99.90;;;;;;5134553;27;20501;-80
2021/08/13 01:47:50;;;;;;;5.60;4.97;;;24.00;99.90;;;;;;5135100;27;20501;-80
2021/08/13 01:50:19;;;;;;;6.47;5.87;;;24.00;99.90;;;;;;5133683;27;20443;-80
2021/08/13 01:52:48;;;;;;;5.73;5.23;;;24.00;99.90;;;;;;5134745;27;20444;-80
2021/08/13 01:55:18;;;;;;;5.60;5.07;;;23.90;99.90;;;;;;5133978;27;20424;-80
2021/08/13 01:57:46;;;;;;;5.40;4.90;;;23.80;99.90;;;;;;5134752;27;20501;-80
2021/08/13 02:00:17;;;;;;;6.20;5.60;;;23.80;99.90;;;;;;5133463;27;20452;-80
2021/08/13 02:02:47;;;;;;;6.60;5.33;;;23.90;99.90;;;;;;5134890;27;20471;-80
2021/08/13 02:05:18;;;;;;;7.30;5.97;;;23.90;99.90;;;;;;5133267;27;20444;-80
2021/08/13 02:07:48;;;;;;;6.90;5.47;;;24.00;99.90;;;;;;5134528;27;20436;-80
2021/08/13 02:10:18;;;;;;;7.23;6.37;;;24.00;99.90;;;;;;5126251;27;20429;-80
2021/08/13 02:12:46;;;;;;;6.43;5.83;;;24.00;99.90;;;;;;5112158;28;20484;-80
2021/08/13 02:15:14;;;;;;;5.73;5.23;;;24.00;99.90;;;;;;5113552;28;20950;-80
2021/08/13 02:17:49;;;;;;;5.70;5.20;;;24.00;99.90;;;;;;5116516;27;20441;-81
2021/08/13 02:20:20;;;;;;;7.93;5.80;;;24.10;99.90;;;;;;5134608;27;20497;-80
2021/08/13 02:22:48;;;;;;;10.60;6.70;;;24.00;99.90;;;;;;5134450;27;20988;-80
2021/08/13 02:25:16;;;;;;;7.97;5.97;;;24.00;99.90;;;;;;5133712;27;20436;-79
2021/08/13 02:27:45;;;;;;;6.70;6.03;;;24.10;99.90;;;;;;5134333;27;20440;-80
2021/08/13 02:30:13;;;;;;;6.17;5.57;;;24.10;99.90;;;;;;5131350;27;21034;-80
2021/08/13 02:32:41;;;;;;;6.30;5.77;;;24.10;99.90;;;;;;5134622;27;20441;-80
2021/08/13 02:35:12;;;;;;;9.30;6.10;;;24.10;99.90;;;;;;5132347;27;20444;-80
2021/08/13 02:37:46;;;;;;;6.20;5.60;;;24.10;99.90;;;;;;5134682;27;20973;-80
2021/08/13 02:40:17;;;;;;;7.20;6.30;;;24.10;99.90;;;;;;5133683;27;20947;-80
2021/08/13 02:42:50;;;;;;;7.60;6.40;;;24.10;99.90;;;;;;5134484;27;20476;-80
2021/08/13 02:45:25;;;;;;;7.70;6.00;;;24.10;99.90;;;;;;5133804;27;20447;-80
2021/08/13 02:47:57;;;;;;;6.13;5.53;;;24.10;99.90;;;;;;5131750;27;20526;-79
2021/08/13 02:50:29;;;;;;;6.53;5.93;;;24.00;99.90;;;;;;5133038;27;20440;-80
2021/08/13 02:53:02;;;;;;;7.27;6.37;;;24.00;99.90;;;;;;5132719;27;20825;-80
2021/08/13 02:55:35;;;;;;;7.90;6.00;;;24.00;99.90;;;;;;5132009;27;20443;-80
2021/08/13 02:58:07;;;;;;;7.17;6.47;;;24.00;99.90;;;;;;5133016;27;20923;-80
2021/08/13 03:00:39;;;;;;;7.03;6.37;;;24.00;99.90;;;;;;5133291;27;20444;-80
2021/08/13 03:03:08;;;;;;;8.83;6.37;;;24.00;99.90;;;;;;5131453;27;20464;-79
2021/08/13 03:05:43;;;;;;;5.20;4.80;;;24.00;99.90;;;;;;5133452;27;20440;-79
2021/08/13 03:08:11;;;;;;;7.30;6.67;;;24.00;99.90;;;;;;5132478;27;20432;-80
2021/08/13 03:10:40;;;;;;;7.27;6.60;;;24.00;99.90;;;;;;5114285;27;20472;-80
2021/08/13 03:13:08;;;;;;;12.20;6.97;;;24.00;99.90;;;;;;5111095;28;20457;-80
2021/08/13 03:15:37;;;;;;;6.20;5.63;;;24.00;99.90;;;;;;5112901;28;20429;-80
2021/08/13 03:18:06;;;;;;;6.80;6.20;;;24.10;99.90;;;;;;5110358;28;20445;-80
2021/08/13 03:20:34;;;;;;;7.03;6.27;;;24.00;99.90;;;;;;5111494;28;20444;-80
2021/08/13 03:23:04;;;;;;;6.80;6.13;;;24.00;99.90;;;;;;5109966;28;20669;-80
2021/08/13 03:25:32;;;;;;;8.13;6.17;;;24.00;99.90;;;;;;5112812;28;20445;-80
2021/08/13 03:28:01;;;;;;;7.23;6.53;;;24.00;99.90;;;;;;5111479;28;20459;-80
2021/08/13 03:30:29;;;;;;;6.90;6.20;;;24.00;99.90;;;;;;5112233;28;20802;-80
2021/08/13 03:32:57;;;;;;;6.77;6.17;;;24.00;99.90;;;;;;5111464;28;20551;-80
2021/08/13 03:35:25;;;;;;;8.20;6.37;;;24.00;99.90;;;;;;5111935;28;20456;-80
2021/08/13 03:37:53;;;;;;;7.07;6.43;;;24.00;99.90;;;;;;5111182;28;20459;-80
2021/08/13 03:40:23;;;;;;;7.93;7.13;;;24.00;99.90;;;;;;5110392;28;20471;-79
2021/08/13 03:42:51;;;;;;;8.67;7.47;;;23.90;99.90;;;;;;5111013;27;20456;-80
2021/08/13 03:45:20;;;;;;;7.77;7.03;;;23.90;99.90;;;;;;5110295;28;20484;-80
2021/08/13 03:47:48;;;;;;;9.10;6.80;;;23.90;99.90;;;;;;5109593;28;20448;-80
2021/08/13 03:50:16;;;;;;;8.40;6.37;;;23.90;99.90;;;;;;5111896;28;20445;-80
2021/08/13 03:52:44;;;;;;;7.17;6.27;;;23.90;99.90;;;;;;5110660;28;20469;-80
2021/08/13 03:55:13;;;;;;;7.80;5.77;;;24.00;99.90;;;;;;5110806;28;20437;-80
2021/08/13 03:57:43;;;;;;;7.10;6.40;;;24.10;99.90;;;;;;5111306;28;20433;-80
2021/08/13 04:00:13;;;;;;;7.13;6.53;;;24.10;99.90;;;;;;5112849;27;20848;-79
2021/08/13 04:02:41;;;;;;;6.73;6.07;;;24.10;99.90;;;;;;5111071;28;21209;-80
2021/08/13 04:05:11;;;;;;;12.30;6.63;;;24.10;99.90;;;;;;5109998;28;20825;-80
2021/08/13 04:07:40;;;;;;;6.83;6.03;;;24.10;99.90;;;;;;5110694;28;20956;-80
2021/08/13 04:10:09;;;;;;;7.20;6.50;;;24.10;99.90;;;;;;5108700;28;20452;-80
2021/08/13 04:12:37;;;;;;;7.70;7.00;;;24.00;99.90;;;;;;5109281;28;20460;-80
2021/08/13 04:15:07;;;;;;;10.33;7.60;;;24.00;99.90;;;;;;5111329;28;20592;-80
2021/08/13 04:17:36;;;;;;;10.83;6.13;;;24.00;99.90;;;;;;5120048;27;20455;-80
2021/08/13 04:20:04;;;;;;;6.70;6.10;;;24.00;99.90;;;;;;5131592;27;20432;-80
2021/08/13 04:22:32;;;;;;;7.00;6.30;;;24.00;99.90;;;;;;5131369;27;20448;-79
2021/08/13 04:25:00;;;;;;;7.23;6.53;;;24.00;99.90;;;;;;5126085;27;20465;-80
2021/08/13 04:27:29;;;;;;;7.27;6.63;;;24.00;99.90;;;;;;5123506;27;20950;-79
2021/08/13 04:29:57;;;;;;;7.40;6.70;;;23.90;99.90;;;;;;5129833;27;20455;-80
2021/08/13 04:32:26;;;;;;;7.17;6.33;;;23.90;99.90;;;;;;5131921;27;21093;-79
2021/08/13 04:34:54;;;;;;;8.20;7.40;;;23.90;99.90;;;;;;5118396;28;20455;-81
2021/08/13 04:37:23;;;;;;;6.30;5.70;;;23.90;99.90;;;;;;5110869;28;20512;-80
2021/08/13 04:39:51;;;;;;;6.73;5.90;;;23.90;99.90;;;;;;5110434;28;20441;-80
2021/08/13 04:42:19;;;;;;;6.90;6.30;;;23.90;99.90;;;;;;5110777;28;20457;-80
2021/08/13 04:44:47;;;;;;;9.33;7.23;;;23.80;1.00;;;;;;5109951;28;20612;-80
2021/08/13 04:47:36;;;;;;;6.70;6.00;;;23.80;1.00;;;;;;5111204;28;20437;-80
2021/08/13 04:50:06;;;;;;;6.83;6.23;;;23.90;99.90;;;;;;5109096;28;20511;-80
2021/08/13 04:52:43;;;;;;;7.13;6.53;;;23.80;1.00;;;;;;5114639;28;20909;-80
2021/08/13 04:55:12;;;;;;;8.43;6.37;;;23.80;99.90;;;;;;5114092;28;20428;-80
2021/08/13 04:57:40;;;;;;;7.77;6.43;;;23.60;1.00;;;;;;5115174;28;20437;-80
2021/08/13 05:00:09;;;;;;;7.20;6.60;;;23.60;1.00;;;;;;5114543;28;20429;-80
2021/08/13 05:02:38;;;;;;;7.80;7.10;;;23.60;1.00;;;;;;5115216;28;20461;-80
2021/08/13 05:05:07;;;;;;;8.17;7.00;;;23.70;1.00;;;;;;5114884;28;20817;-80
2021/08/13 05:07:35;;;;;;;7.83;7.13;;;23.70;99.90;;;;;;5115107;27;20449;-79
2021/08/13 05:10:06;;;;;;;8.00;7.00;;;23.60;1.00;;;;;;5112806;28;20452;-80
2021/08/13 05:12:35;;;;;;;8.30;6.20;;;23.50;1.00;;;;;;5114092;28;20476;-79
2021/08/13 05:15:03;;;;;;;8.03;6.87;;;23.70;1.00;;;;;;5114072;28;20806;-80
2021/08/13 05:17:31;;;;;;;7.87;7.10;;;23.80;1.00;;;;;;5115539;28;20484;-79
2021/08/13 05:20:01;;;;;;;16.40;9.77;;;23.90;1.00;;;;;;5113415;28;20433;-80
2021/08/13 05:22:32;;;;;;;8.33;7.53;;;23.90;1.00;;;;;;5115045;28;20573;-80
2021/08/13 05:25:01;;;;;;;11.70;8.33;;;24.00;1.00;;;;;;5118255;27;20852;-79
2021/08/13 05:27:29;;;;;;;15.70;10.53;;;24.00;99.90;;;;;;5134611;27;20861;-81
2021/08/13 05:29:57;;;;;;;12.70;9.70;;;24.10;99.90;;;;;;5132789;27;20946;-80
2021/08/13 05:32:27;;;;;;;14.97;9.33;;;24.00;1.00;;;;;;5135899;27;20464;-80
2021/08/13 05:34:55;;;;;;;8.93;6.40;;;24.10;1.00;;;;;;5135583;27;20489;-80
2021/08/13 05:37:24;;;;;;;8.30;7.50;;;24.10;1.00;;;;;;5134089;27;20448;-81
2021/08/13 05:39:52;;;;;;;8.00;6.70;;;24.10;1.00;;;;;;5134113;27;20784;-81
2021/08/13 05:42:20;;;;;;;7.97;6.37;;;24.10;1.00;;;;;;5134324;27;20475;-80
2021/08/13 05:44:48;;;;;;;7.33;6.63;;;24.10;1.00;;;;;;5134503;27;20475;-80
2021/08/13 05:47:18;;;;;;;7.80;7.10;;;24.00;1.00;;;;;;5136034;27;20501;-78
2021/08/13 05:49:46;;;;;;;8.10;6.73;;;24.00;1.00;;;;;;5134051;27;20428;-80
2021/08/13 05:52:14;;;;;;;8.10;7.00;;;24.00;1.00;;;;;;5134730;27;20921;-79
2021/08/13 05:54:44;;;;;;;10.40;6.67;;;24.00;1.00;;;;;;5134731;27;20496;-80
2021/08/13 05:57:12;;;;;;;6.97;6.00;;;24.00;1.00;;;;;;5135073;27;20500;-80
2021/08/13 05:59:40;;;;;;;7.23;6.43;;;24.00;1.00;;;;;;5133553;27;20459;-80
2021/08/13 06:02:08;;;;;;;7.90;6.20;;;24.00;1.00;;;;;;5134680;27;20464;-80
2021/08/13 06:04:36;;;;;;;6.97;6.30;;;24.10;1.00;;;;;;5132951;27;20518;-80
2021/08/13 06:07:04;;;;;;;8.60;6.20;;;24.10;1.00;;;;;;5132966;27;20823;-79
2021/08/13 06:09:32;;;;;;;6.37;5.77;;;24.20;1.00;;;;;;5114634;27;20453;-80
2021/08/13 06:12:02;;;;;;;7.07;6.43;;;24.20;1.00;;;;;;5110782;28;20490;-79
2021/08/13 06:14:32;;;;;;;6.40;5.80;;;24.30;1.00;;;;;;5113019;28;20437;-80
2021/08/13 06:17:03;;;;;;;6.30;5.70;;;24.30;1.00;;;;;;5113471;27;20445;-80
2021/08/13 06:19:31;;;;;;;7.87;6.20;;;24.30;1.00;;;;;;5111226;28;20931;-80
2021/08/13 06:21:59;;;;;;;6.67;6.13;;;24.40;1.00;;;;;;5113025;28;20449;-80
2021/08/13 06:24:28;;;;;;;8.33;7.17;;;24.40;1.00;;;;;;5113415;28;20954;-80
2021/08/13 06:26:56;;;;;;;8.80;7.07;;;24.50;1.00;;;;;;5111243;28;20454;-79
2021/08/13 06:29:26;;;;;;;8.67;6.33;;;24.50;1.00;;;;;;5113259;28;20938;-80
2021/08/13 06:31:54;;;;;;;11.83;7.57;;;24.60;1.00;;;;;;5112288;28;20522;-80
2021/08/13 06:34:23;;;;;;;10.27;7.30;;;24.80;1.00;;;;;;5118225;27;20506;-79
2021/08/13 06:36:51;;;;;;;7.60;6.50;;;24.90;1.00;;;;;;5116992;28;20433;-81
2021/08/13 06:39:19;;;;;;;10.60;6.50;;;25.00;1.00;;;;;;5118937;28;20536;-80
2021/08/13 06:42:06;;;;;;;6.97;5.90;;;25.10;1.00;;;;;;5117508;28;20478;-79
2021/08/13 06:44:35;;;;;;;7.93;5.70;;;25.20;1.00;;;;;;5117667;28;20437;-80
2021/08/13 06:47:04;;;;;;;9.40;5.80;;;25.40;1.00;;;;;;5113966;28;20501;-79
2021/08/13 06:49:32;;;;;;;7.27;5.53;;;25.40;99.90;;;;;;5114190;27;20441;-80
2021/08/13 06:52:02;;;;;;;7.97;5.90;;;25.60;99.90;;;;;;5114117;28;20478;-79
2021/08/13 06:54:30;;;;;;;7.23;5.50;;;25.70;99.90;;;;;;5115213;28;20449;-78
2021/08/13 06:56:58;;;;;;;8.50;5.37;;;25.90;99.90;;;;;;5113144;28;20510;-79
2021/08/13 06:59:28;;;;;;;5.07;4.53;;;26.00;99.90;;;;;;5116353;28;20444;-80
2021/08/13 07:01:57;;;;;;;5.27;4.50;;;26.30;99.90;;;;;;5113584;28;21058;-79
2021/08/13 07:04:26;;;;;;;5.30;4.80;;;26.40;99.90;;;;;;5116191;28;20437;-79
2021/08/13 07:06:54;;;;;;;4.90;3.73;;;26.70;99.90;;;;;;5114744;27;20472;-79
2021/08/13 07:09:22;;;;;;;5.97;4.03;;;26.70;99.90;;;;;;5130975;27;20460;-80
2021/08/13 07:11:50;;;;;;;4.20;3.50;;;26.80;99.90;;;;;;5134691;27;20531;-78
2021/08/13 07:14:18;;;;;;;5.67;4.10;;;26.90;99.90;;;;;;5136042;27;20448;-79
2021/08/13 07:16:47;;;;;;;4.90;3.90;;;27.00;99.90;;;;;;5135132;27;20446;-80
2021/08/13 07:19:17;;;;;;;4.37;4.07;;;27.10;99.90;;;;;;5135778;27;20440;-79
2021/08/13 07:21:45;;;;;;;4.10;3.63;;;27.40;99.90;;;;;;5136433;27;20501;-80
2021/08/13 07:24:15;;;;;;;3.80;3.30;;;27.60;99.90;;;;;;5136096;27;20938;-79
2021/08/13 07:26:43;;;;;;;3.80;3.47;;;27.70;99.90;;;;;;5136121;27;21001;-79
2021/08/13 07:29:11;;;;;;;4.10;3.63;;;27.80;99.90;;;;;;5137028;27;20803;-80
2021/08/13 07:31:39;;;;;;;5.00;4.20;;;27.70;99.90;;;;;;5133766;27;20986;-80
2021/08/13 07:34:07;;;;;;;4.10;3.60;;;27.80;99.90;;;;;;5126585;27;20448;-80
2021/08/13 07:36:37;;;;;;;5.97;4.10;;;27.80;99.90;;;;;;5136429;27;20440;-80
2021/08/13 07:39:05;;;;;;;5.30;3.40;;;27.80;99.90;;;;;;5136431;27;20500;-81
2021/08/13 07:41:33;;;;;;;3.97;3.03;;;27.90;99.90;;;;;;5127578;27;20465;-80
2021/08/13 07:44:06;;;;;;;2.70;2.47;;;27.80;99.90;;;;;;5115999;28;20437;-80
2021/08/13 07:46:34;;;;;;;4.20;3.27;;;27.80;99.90;;;;;;5112297;28;20924;-80
2021/08/13 07:49:03;;;;;;;5.30;3.50;;;27.90;99.90;;;;;;5114807;28;20466;-80
2021/08/13 07:51:32;;;;;;;3.73;2.57;;;28.00;99.90;;;;;;5114804;28;20468;-79
2021/08/13 07:54:01;;;;;;;3.63;3.23;;;28.00;99.90;;;;;;5115938;28;20517;-79
2021/08/13 07:56:29;;;;;;;5.27;2.70;;;28.00;99.90;;;;;;5113276;28;20514;-79
2021/08/13 07:58:57;;;;;;;4.43;2.60;;;27.90;99.90;;;;;;5125132;27;20448;-80
2021/08/13 08:01:26;;;;;;;3.10;2.80;;;27.90;99.90;;;;;;5133839;27;20456;-80
2021/08/13 08:03:54;;;;;;;3.43;2.37;;;27.80;99.90;;;;;;5134201;27;20483;-79
2021/08/13 08:06:40;;;;;;;4.30;2.90;;;27.80;99.90;;;;;;5131111;27;20490;-80
2021/08/13 08:09:09;;;;;;;4.53;3.07;;;27.80;99.90;;;;;;5111716;28;20918;-80
2021/08/13 08:11:37;;;;;;;7.73;2.90;;;27.80;99.90;;;;;;5112540;28;20476;-81
2021/08/13 08:14:08;;;;;;;5.13;3.60;;;27.80;99.90;;;;;;5113350;28;20448;-80
2021/08/13 08:16:36;;;;;;;4.40;3.13;;;27.80;99.90;;;;;;5113495;27;20459;-81
2021/08/13 08:19:05;;;;;;;5.13;3.20;;;27.80;99.90;;;;;;5111999;28;20447;-80
2021/08/13 08:21:33;;;;;;;3.67;3.33;;;27.80;99.90;;;;;;5112252;28;20461;-80
2021/08/13 08:24:01;;;;;;;7.33;3.10;;;27.80;99.90;;;;;;5112502;28;20437;-80
2021/08/13 08:26:31;;;;;;;3.93;3.63;;;27.80;99.90;;;;;;5112187;28;20568;-80
2021/08/13 08:29:00;;;;;;;4.10;3.60;;;27.80;99.90;;;;;;5112137;28;21265;-80
2021/08/13 08:31:28;;;;;;;3.70;3.30;;;27.80;99.90;;;;;;5113207;28;20532;-81
2021/08/13 08:33:56;;;;;;;4.90;4.10;;;27.80;99.90;;;;;;5131502;28;20494;-80
2021/08/13 08:36:25;;;;;;;4.33;3.33;;;27.80;99.90;;;;;;5133626;27;20512;-80
2021/08/13 08:38:53;;;;;;;3.73;3.13;;;27.80;99.90;;;;;;5133053;27;20440;-80
2021/08/13 08:41:21;;;;;;;4.00;3.53;;;27.80;99.90;;;;;;5133361;27;20930;-80
2021/08/13 08:43:50;;;;;;;6.53;4.87;;;27.90;99.90;;;;;;5132180;28;20436;-80
2021/08/13 08:46:20;;;;;;;5.30;4.13;;;27.80;99.90;;;;;;5132639;27;20468;-80
2021/08/13 08:48:52;;;;;;;4.80;4.03;;;27.80;99.90;;;;;;5131665;27;20449;-80
2021/08/13 08:51:20;;;;;;;5.77;3.80;;;27.80;99.90;;;;;;5133749;27;20495;-80
2021/08/13 08:53:51;;;;;;;6.20;4.07;;;27.90;99.90;;;;;;5133331;28;20473;-80
2021/08/13 08:56:22;;;;;;;5.20;4.27;;;28.00;99.90;;;;;;5133537;28;20469;-80
2021/08/13 08:58:52;;;;;;;3.63;3.33;;;28.00;99.90;;;;;;5131549;28;20723;-80
2021/08/13 09:01:21;;;;;;;5.23;4.40;;;28.00;99.90;;;;;;5132598;27;20519;-80
2021/08/13 09:03:50;;;;;;;10.73;4.00;;;28.00;99.90;;;;;;5132376;28;20506;-80
2021/08/13 09:06:19;;;;;;;4.77;4.20;;;28.10;99.90;;;;;;5130586;28;21010;-80
2021/08/13 09:08:47;;;;;;;3.90;3.50;;;28.20;99.90;;;;;;5131995;28;20451;-80
2021/08/13 09:11:15;;;;;;;3.93;3.40;;;28.20;99.90;;;;;;5129632;28;20444;-79
2021/08/13 09:16:36;;;;;;;4.17;3.47;;;28.30;99.90;;;;;;5111629;27;1258152;-81
2021/08/13 09:19:06;;;;;;;3.63;3.30;;;28.40;99.90;;;;;;5131882;28;20434;-81
2021/08/13 09:21:35;;;;;;;4.00;3.70;;;28.40;99.90;;;;;;5128517;28;20477;-80
2021/08/13 09:24:09;;;;;;;5.57;3.87;;;28.40;99.90;;;;;;5093109;28;20812;-81
2021/08/13 09:26:41;;;;;;;5.50;4.20;;;28.40;99.90;;;;;;5111563;28;21029;-82
2021/08/13 09:29:11;;;;;;;5.40;3.77;;;28.40;99.90;;;;;;5110308;28;20696;-82
2021/08/13 09:31:40;;;;;;;3.70;3.40;;;28.40;99.90;;;;;;5110195;28;20465;-81
2021/08/13 09:34:10;;;;;;;6.03;4.50;;;28.20;99.90;;;;;;5110470;28;20441;-81
2021/08/13 09:36:52;;;;;;;6.60;3.80;;;28.40;99.90;;;;;;5092155;28;21075;-82
2021/08/13 09:39:25;;;;;;;3.73;3.30;;;28.40;99.90;;;;;;5111585;28;21009;-82
2021/08/13 09:41:56;;;;;;;4.43;3.73;;;28.50;99.90;;;;;;5110749;28;20991;-80
2021/08/13 09:44:25;;;;;;;5.77;4.03;;;28.50;99.90;;;;;;5111398;28;20440;-81
2021/08/13 09:46:59;;;;;;;3.90;3.60;;;28.50;99.90;;;;;;5109583;28;20992;-81
2021/08/13 09:49:29;;;;;;;4.73;4.03;;;28.60;99.90;;;;;;5110809;28;20429;-81
2021/08/13 09:51:58;;;;;;;4.00;3.57;;;28.50;99.90;;;;;;5110535;28;20457;-81
2021/08/13 09:54:30;;;;;;;5.10;3.67;;;28.60;99.90;;;;;;5111390;28;20522;-80
2021/08/13 09:57:08;;;;;;;4.87;4.37;;;28.70;99.90;;;;;;5090470;28;20460;-82
2021/08/13 09:59:36;;;;;;;4.30;4.00;;;28.70;99.90;;;;;;5110325;28;20448;-81
2021/08/13 10:02:14;;;;;;;5.13;4.10;;;28.80;99.90;;;;;;5110518;28;20468;-81
2021/08/13 10:04:43;;;;;;;5.37;3.77;;;28.80;99.90;;;;;;5110591;28;20433;-80
2021/08/13 10:07:17;;;;;;;4.67;4.20;;;28.80;99.90;;;;;;5109509;28;20449;-82
2021/08/13 10:09:45;;;;;;;4.40;3.20;;;28.80;99.90;;;;;;5091150;28;20449;-82
2021/08/13 10:12:13;;;;;;;4.23;3.90;;;28.90;99.90;;;;;;5108335;28;20469;-81
2021/08/13 10:14:42;;;;;;;4.70;4.07;;;28.90;99.90;;;;;;5109821;28;20494;-82
2021/08/13 10:17:14;;;;;;;5.37;4.57;;;28.80;99.90;;;;;;5108879;28;20429;-81
2021/08/13 10:19:44;;;;;;;3.93;3.57;;;28.90;99.90;;;;;;5109394;28;20430;-82
2021/08/13 10:22:12;;;;;;;5.07;4.57;;;29.00;99.90;;;;;;5090827;28;20551;-82
2021/08/13 10:24:43;;;;;;;4.63;4.20;;;29.00;99.90;;;;;;5110064;28;20437;-81
2021/08/13 10:27:13;;;;;;;5.80;4.90;;;28.90;99.90;;;;;;5082321;28;20582;-80
2021/08/13 10:29:41;;;;;;;6.30;3.53;;;28.80;99.90;;;;;;5078213;28;20454;-81
2021/08/13 10:32:11;;;;;;;4.03;3.73;;;28.80;99.90;;;;;;5096532;28;20469;-81
2021/08/13 10:34:40;;;;;;;8.90;4.63;;;28.80;99.90;;;;;;5095741;28;20442;-81
2021/08/13 10:37:12;;;;;;;3.90;3.40;;;28.80;99.90;;;;;;5094966;28;20540;-82
2021/08/13 10:39:42;;;;;;;3.30;2.73;;;28.90;99.90;;;;;;5106379;28;20528;-81
2021/08/13 10:42:23;;;;;;;5.03;4.50;;;28.90;99.90;;;;;;5096829;28;21042;-82
2021/08/13 10:44:54;;;;;;;4.80;4.07;;;28.90;99.90;;;;;;5096233;28;20475;-82
2021/08/13 10:47:28;;;;;;;5.80;4.80;;;29.00;99.90;;;;;;5096936;28;20446;-82
2021/08/13 10:49:59;;;;;;;6.53;4.13;;;29.00;99.90;;;;;;5095628;28;20457;-81
2021/08/13 10:52:34;;;;;;;3.47;3.17;;;29.00;99.90;;;;;;5096936;28;20511;-82
2021/08/13 10:55:04;;;;;;;3.40;3.10;;;29.00;99.90;;;;;;5094828;28;20440;-82
2021/08/13 10:57:59;;;;;;;3.83;3.53;;;29.00;99.90;;;;;;5077946;28;20477;-82
2021/08/13 11:00:30;;;;;;;4.60;3.63;;;28.90;99.90;;;;;;5075257;28;20449;-81
2021/08/13 11:03:19;;;;;;;5.30;4.33;;;28.90;99.90;;;;;;5096645;28;20470;-81
2021/08/13 11:05:53;;;;;;;3.50;3.17;;;28.90;99.90;;;;;;5093463;28;20861;-81
2021/08/13 11:08:21;;;;;;;4.30;3.90;;;28.90;99.90;;;;;;5095359;28;20475;-82
2021/08/13 11:10:57;;;;;;;7.20;4.40;;;28.90;99.90;;;;;;5075199;28;20480;-82
2021/08/13 11:13:26;;;;;;;5.67;5.17;;;28.90;99.90;;;;;;5094519;28;20465;-81
2021/08/13 11:15:55;;;;;;;4.07;3.23;;;28.90;99.90;;;;;;5094289;28;20473;-82
2021/08/13 11:18:32;;;;;;;4.20;3.80;;;28.90;99.90;;;;;;5076975;28;20445;-82
2021/08/13 11:21:03;;;;;;;2.80;2.60;;;28.90;99.90;;;;;;5095336;28;20433;-82
2021/08/13 11:23:32;;;;;;;5.20;4.80;;;28.90;99.90;;;;;;5094755;28;20497;-82
2021/08/13 11:26:00;;;;;;;5.37;4.50;;;28.90;99.90;;;;;;5095100;28;20449;-82
2021/08/13 11:28:30;;;;;;;5.30;3.63;;;29.00;99.90;;;;;;5094509;28;20499;-82
2021/08/13 11:31:00;;;;;;;8.80;4.63;;;29.00;99.90;;;;;;5094865;28;20449;-82
2021/08/13 11:33:40;;;;;;;6.43;5.17;;;29.00;99.90;;;;;;5076565;28;20538;-82
2021/08/13 11:36:45;;;;;;;4.37;3.80;;;29.10;99.90;;;;;;5094373;28;20466;-81
2021/08/13 11:39:37;;;;;;;3.87;3.57;;;29.10;99.90;;;;;;5075554;28;20463;-81
2021/08/13 11:42:07;;;;;;;4.30;4.00;;;29.20;99.90;;;;;;5095522;28;20461;-82
2021/08/13 11:44:36;;;;;;;6.17;5.37;;;29.20;99.90;;;;;;5094397;28;20991;-81
2021/08/13 11:47:04;;;;;;;47.67;25.80;;;29.30;99.90;;;;;;5095088;28;20851;-82
2021/08/13 11:49:35;;;;;;;12.07;7.70;;;29.30;99.90;;;;;;5075785;28;20491;-81
2021/08/13 11:52:03;;;;;;;6.10;5.60;;;29.40;99.90;;;;;;5077130;28;20523;-82
2021/08/13 11:54:35;;;;;;;10.07;5.33;;;29.40;99.90;;;;;;5075672;28;20446;-81
2021/08/13 11:57:15;;;;;;;8.50;5.17;;;29.40;99.90;;;;;;5094587;28;20485;-82
2021/08/13 11:59:44;;;;;;;5.73;5.10;;;29.50;99.90;;;;;;5075763;28;20441;-82
2021/08/13 12:02:12;;;;;;;6.53;4.63;;;29.50;99.90;;;;;;5094913;28;20462;-81
2021/08/13 12:04:41;;;;;;;4.83;4.43;;;29.50;99.90;;;;;;5092011;28;20438;-82
2021/08/13 12:07:11;;;;;;;6.10;4.37;;;29.60;99.90;;;;;;5073824;28;20518;-82
2021/08/13 12:09:40;;;;;;;5.60;4.57;;;29.60;99.90;;;;;;5073326;28;20427;-81
2021/08/13 12:12:10;;;;;;;4.90;4.40;;;29.60;99.90;;;;;;5053831;28;20463;-81
2021/08/13 12:14:48;;;;;;;5.93;5.40;;;29.70;99.90;;;;;;5092745;28;20467;-82
2021/08/13 12:17:18;;;;;;;5.10;4.60;;;29.70;99.90;;;;;;5093669;28;20501;-81
2021/08/13 12:19:53;;;;;;;7.00;5.77;;;29.70;99.90;;;;;;5094096;28;20438;-81
2021/08/13 12:22:29;;;;;;;4.67;4.27;;;29.70;99.90;;;;;;5092656;28;20734;-82
2021/08/13 12:24:58;;;;;;;5.60;4.97;;;29.70;99.90;;;;;;5094770;28;20468;-81
2021/08/13 12:27:28;;;;;;;5.07;4.57;;;29.70;99.90;;;;;;5093154;28;20449;-81
2021/08/13 12:29:57;;;;;;;5.37;4.83;;;29.70;99.90;;;;;;5093383;28;20855;-82
2021/08/13 12:32:36;;;;;;;4.20;3.90;;;29.70;99.90;;;;;;5092548;28;20450;-82
2021/08/13 12:35:05;;;;;;;5.30;4.40;;;29.70;99.90;;;;;;5093716;28;20433;-82
2021/08/13 12:37:33;;;;;;;6.10;5.60;;;29.70;99.90;;;;;;5092473;28;20508;-82
2021/08/13 12:40:03;;;;;;;6.83;6.17;;;29.70;99.90;;;;;;5094247;28;20503;-80
2021/08/13 12:42:31;;;;;;;5.27;4.80;;;29.70;99.90;;;;;;5074987;28;20606;-82
2021/08/13 12:45:02;;;;;;;6.67;5.80;;;29.60;99.90;;;;;;5075326;28;20441;-82
2021/08/13 12:47:30;;;;;;;5.63;4.70;;;29.70;99.90;;;;;;5092938;28;20449;-82
2021/08/13 12:49:59;;;;;;;5.37;4.87;;;29.70;99.90;;;;;;5093647;28;20462;-81
2021/08/13 12:52:27;;;;;;;6.03;5.37;;;29.80;99.90;;;;;;5092556;28;20462;-81
2021/08/13 12:54:59;;;;;;;6.27;5.67;;;29.80;99.90;;;;;;5094946;28;20465;-81
2021/08/13 12:57:37;;;;;;;5.03;4.73;;;29.80;99.90;;;;;;5092207;28;20473;-82
2021/08/13 13:00:10;;;;;;;6.80;5.03;;;29.80;99.90;;;;;;5093690;28;20452;-81
2021/08/13 13:02:38;;;;;;;7.97;6.20;;;29.90;99.90;;;;;;5092489;28;20488;-81
2021/08/13 13:05:09;;;;;;;6.37;5.80;;;29.90;99.90;;;;;;5068322;28;20446;-81
2021/08/13 13:07:39;;;;;;;7.87;5.80;;;29.90;99.90;;;;;;5072625;28;20488;-82